Time;durP1;ratioP1;P1;durP2;ratioP2;P2;SDS_P1;SDS_P2;PMS_P1;PMS_P2;Temp;Humidity;BMP_temperature;BMP_pressure;BME280_temperature;BME280_humidity;BME280_pressure;Samples;Min_cycle;Max_cycle;Signal;HPM_P1;HPM_P2
2022/06/30 00:00:51;;;;;;;2.30;2.10;;;17.60;85.20;;;;;;5062701;28;20295;-88
2022/06/30 00:03:18;;;;;;;3.05;2.03;;;17.60;85.70;;;;;;5074453;28;20223;-89
2022/06/30 00:05:45;;;;;;;5.07;2.10;;;17.60;86.20;;;;;;5060447;28;20311;-89
2022/06/30 00:08:13;;;;;;;2.58;2.00;;;17.60;86.40;;;;;;5075638;28;20219;-89
2022/06/30 00:10:40;;;;;;;2.45;2.10;;;17.50;87.20;;;;;;5076088;28;20222;-89
2022/06/30 00:13:07;;;;;;;3.15;1.90;;;17.50;87.30;;;;;;5061695;28;20588;-90
2022/06/30 00:15:35;;;;;;;2.28;1.80;;;17.40;87.50;;;;;;5073346;28;20223;-89
2022/06/30 00:18:02;;;;;;;3.60;2.50;;;17.50;87.80;;;;;;5075908;28;20219;-90
2022/06/30 00:20:29;;;;;;;2.72;2.08;;;17.40;88.20;;;;;;5065411;28;20723;-90
2022/06/30 00:22:57;;;;;;;2.38;2.10;;;17.40;88.40;;;;;;5068968;28;20309;-89
2022/06/30 00:25:25;;;;;;;3.60;2.20;;;17.30;88.90;;;;;;5084193;28;20247;-89
2022/06/30 00:27:52;;;;;;;2.63;2.10;;;17.40;89.50;;;;;;5067828;28;20782;-89
2022/06/30 00:30:19;;;;;;;2.53;2.05;;;17.40;89.60;;;;;;5073192;28;20598;-89
2022/06/30 00:32:46;;;;;;;3.03;1.83;;;17.30;89.90;;;;;;5068993;28;20296;-90
2022/06/30 00:35:13;;;;;;;2.97;2.28;;;17.20;90.00;;;;;;5081336;28;20283;-90
2022/06/30 00:37:40;;;;;;;2.70;2.03;;;17.20;90.20;;;;;;5066280;28;20229;-89
2022/06/30 00:40:07;;;;;;;3.10;2.10;;;17.20;90.30;;;;;;5070251;28;20227;-89
2022/06/30 00:42:35;;;;;;;2.75;2.08;;;17.10;90.50;;;;;;5068778;28;20657;-89
2022/06/30 00:45:02;;;;;;;3.28;2.28;;;17.10;90.70;;;;;;5062459;28;20871;-89
2022/06/30 00:47:29;;;;;;;3.15;1.85;;;17.10;90.80;;;;;;5086897;28;20250;-89
2022/06/30 00:49:56;;;;;;;4.10;2.22;;;17.00;91.00;;;;;;5082082;28;20301;-89
2022/06/30 00:52:25;;;;;;;3.97;2.22;;;17.00;91.10;;;;;;5065894;28;20227;-89
2022/06/30 00:54:55;;;;;;;3.75;2.30;;;17.00;91.50;;;;;;5066386;28;21843;-89
2022/06/30 00:57:24;;;;;;;2.80;2.30;;;16.90;91.70;;;;;;5086889;28;20219;-89
2022/06/30 00:59:54;;;;;;;3.73;2.20;;;16.90;91.80;;;;;;5065714;28;20215;-87
2022/06/30 01:02:21;;;;;;;4.05;2.20;;;16.80;92.10;;;;;;5074406;28;20250;-89
2022/06/30 01:04:50;;;;;;;4.00;2.57;;;16.80;92.10;;;;;;5075049;28;20226;-88
2022/06/30 01:07:17;;;;;;;3.10;2.23;;;16.80;92.40;;;;;;5081460;28;20229;-90
2022/06/30 01:12:43;;;;;;;3.95;2.40;;;16.70;92.50;;;;;;5067385;28;20230;-89
2022/06/30 01:15:14;;;;;;;3.33;2.47;;;16.70;92.70;;;;;;5059237;28;20765;-89
2022/06/30 01:17:41;;;;;;;4.47;2.60;;;16.70;93.00;;;;;;5074725;28;20277;-89
2022/06/30 01:20:09;;;;;;;2.42;2.15;;;16.60;93.00;;;;;;5082980;28;20288;-88
2022/06/30 01:22:38;;;;;;;3.50;2.40;;;16.60;93.30;;;;;;5070025;28;20247;-89
2022/06/30 01:25:06;;;;;;;3.03;2.17;;;16.50;93.60;;;;;;5083814;28;20225;-89
2022/06/30 01:27:33;;;;;;;3.13;2.60;;;16.50;93.70;;;;;;5068019;28;20813;-88
2022/06/30 01:30:01;;;;;;;5.60;2.77;;;16.50;93.90;;;;;;5068035;28;20219;-88
2022/06/30 01:32:29;;;;;;;2.85;2.25;;;16.40;94.10;;;;;;5081654;28;20571;-88
2022/06/30 01:34:56;;;;;;;3.37;2.40;;;16.40;94.30;;;;;;5085738;28;20223;-89
2022/06/30 01:37:23;;;;;;;2.67;2.20;;;16.30;94.20;;;;;;5066560;28;20247;-89
2022/06/30 01:39:51;;;;;;;3.70;2.43;;;16.30;94.40;;;;;;5065248;28;20277;-89
2022/06/30 01:42:18;;;;;;;6.43;2.77;;;16.30;94.80;;;;;;5083225;28;20225;-90
2022/06/30 01:44:45;;;;;;;3.73;2.50;;;16.30;94.80;;;;;;5066634;28;20226;-90
2022/06/30 01:47:12;;;;;;;3.03;2.40;;;16.30;95.00;;;;;;5071349;28;21127;-89
2022/06/30 01:49:39;;;;;;;3.33;2.50;;;16.20;95.00;;;;;;5066786;28;20307;-89
2022/06/30 01:52:08;;;;;;;3.80;2.50;;;16.20;95.10;;;;;;5084549;28;20468;-89
2022/06/30 01:54:37;;;;;;;2.63;2.20;;;16.10;95.30;;;;;;5060369;28;20731;-89
2022/06/30 01:57:06;;;;;;;3.03;2.30;;;16.10;95.50;;;;;;5073475;28;20223;-89
2022/06/30 01:59:33;;;;;;;3.17;2.63;;;16.10;95.70;;;;;;5073764;28;20789;-89
2022/06/30 02:01:59;;;;;;;4.07;2.83;;;16.10;95.70;;;;;;5064538;28;20253;-90
2022/06/30 02:07:11;;;;;;;5.00;2.63;;;16.10;95.80;;;;;;5066435;28;20279;-89
2022/06/30 02:09:37;;;;;;;3.57;2.47;;;16.00;95.90;;;;;;5067339;28;20229;-90
2022/06/30 02:14:52;;;;;;;5.13;2.80;;;16.00;96.30;;;;;;5069270;28;20856;-90
2022/06/30 02:17:19;;;;;;;3.23;2.77;;;15.90;96.40;;;;;;5058767;28;20238;-90
2022/06/30 02:19:46;;;;;;;6.27;2.80;;;15.90;96.70;;;;;;5083032;28;20229;-90
2022/06/30 02:22:12;;;;;;;3.93;2.43;;;15.90;96.80;;;;;;5081359;28;20922;-90
2022/06/30 02:24:39;;;;;;;4.77;2.80;;;15.90;96.70;;;;;;5063657;28;20219;-90
2022/06/30 02:27:07;;;;;;;2.90;2.30;;;15.80;96.70;;;;;;5066508;28;20229;-90
2022/06/30 02:29:34;;;;;;;3.37;2.70;;;15.80;96.70;;;;;;5087018;28;20305;-90
2022/06/30 02:32:01;;;;;;;5.87;2.93;;;15.80;96.70;;;;;;5083237;28;20223;-89
2022/06/30 02:34:28;;;;;;;3.77;2.93;;;15.70;96.90;;;;;;5060840;28;20223;-90
2022/06/30 02:36:55;;;;;;;3.83;3.03;;;15.70;97.20;;;;;;5068158;28;20232;-88
2022/06/30 02:39:22;;;;;;;4.30;2.90;;;15.70;97.10;;;;;;5062533;28;20588;-89
2022/06/30 02:41:49;;;;;;;4.43;3.00;;;15.60;97.20;;;;;;5067159;28;20740;-89
2022/06/30 02:44:17;;;;;;;4.50;2.60;;;15.60;97.40;;;;;;5063846;28;20217;-88
2022/06/30 02:46:44;;;;;;;3.80;3.30;;;15.60;97.60;;;;;;5060242;28;20600;-88
2022/06/30 02:49:10;;;;;;;4.13;3.10;;;15.60;97.60;;;;;;5062272;28;20219;-88
2022/06/30 02:51:37;;;;;;;6.57;3.07;;;15.50;97.90;;;;;;5062243;28;20776;-88
2022/06/30 02:54:04;;;;;;;3.67;2.97;;;15.50;98.00;;;;;;5082991;28;20276;-90
2022/06/30 02:56:30;;;;;;;3.23;2.93;;;15.50;98.20;;;;;;5055690;28;20297;-89
2022/06/30 02:58:57;;;;;;;3.50;3.20;;;15.50;98.50;;;;;;5080970;28;20398;-89
2022/06/30 03:01:25;;;;;;;3.63;3.00;;;15.40;98.50;;;;;;5064199;28;20291;-89
2022/06/30 03:03:52;;;;;;;4.00;2.67;;;15.40;98.70;;;;;;5086244;28;20284;-89
2022/06/30 03:06:22;;;;;;;3.90;3.00;;;15.40;98.70;;;;;;5063286;28;20223;-89
2022/06/30 03:08:48;;;;;;;5.03;2.90;;;15.40;98.80;;;;;;5068171;28;20658;-89
2022/06/30 03:11:17;;;;;;;5.17;3.27;;;15.40;98.80;;;;;;5064708;28;20232;-89
2022/06/30 03:13:45;;;;;;;3.63;3.27;;;15.50;98.90;;;;;;5083833;28;20218;-89
2022/06/30 03:16:12;;;;;;;3.93;3.53;;;15.50;99.00;;;;;;5063588;28;20272;-89
2022/06/30 03:18:41;;;;;;;4.83;2.93;;;15.50;99.10;;;;;;5087876;28;20219;-88
2022/06/30 03:21:08;;;;;;;6.00;3.37;;;15.50;99.70;;;;;;5073446;28;20219;-89
2022/06/30 03:23:35;;;;;;;6.43;3.33;;;15.50;99.30;;;;;;5063812;28;20212;-89
2022/06/30 03:26:02;;;;;;;3.93;3.00;;;15.50;99.50;;;;;;5083587;28;20222;-88
2022/06/30 03:28:30;;;;;;;4.60;3.30;;;15.50;99.50;;;;;;5064095;28;20222;-89
2022/06/30 03:30:59;;;;;;;4.80;3.37;;;15.50;99.60;;;;;;5067507;28;20738;-90
2022/06/30 03:33:26;;;;;;;4.30;3.20;;;15.50;99.70;;;;;;5061821;28;20293;-90
2022/06/30 03:35:54;;;;;;;6.03;3.73;;;15.50;99.70;;;;;;5065309;28;20232;-88
2022/06/30 03:38:21;;;;;;;6.63;3.63;;;15.50;99.90;;;;;;5083320;28;20244;-89
2022/06/30 03:41:05;;;;;;;5.67;3.37;;;15.50;99.80;;;;;;5063141;28;20238;-89
2022/06/30 03:43:34;;;;;;;4.63;3.40;;;15.50;99.90;;;;;;5061952;28;20234;-89
2022/06/30 03:46:01;;;;;;;4.03;3.60;;;15.50;99.90;;;;;;5083539;28;20218;-89
2022/06/30 03:48:28;;;;;;;4.60;3.20;;;15.50;99.90;;;;;;5060309;28;20214;-88
2022/06/30 03:50:56;;;;;;;4.97;3.37;;;15.50;99.90;;;;;;5068111;28;20219;-89
2022/06/30 03:53:23;;;;;;;4.03;3.57;;;15.60;99.90;;;;;;5075437;28;20268;-88
2022/06/30 03:55:50;;;;;;;3.60;3.10;;;15.60;99.90;;;;;;5060721;28;20219;-89
2022/06/30 03:58:17;;;;;;;5.83;3.33;;;15.60;99.90;;;;;;5064497;28;20822;-90
2022/06/30 04:00:44;;;;;;;3.50;3.20;;;15.60;99.90;;;;;;5084631;28;20308;-90
2022/06/30 04:03:10;;;;;;;5.60;3.80;;;15.60;99.90;;;;;;5058190;28;20222;-89
2022/06/30 04:05:38;;;;;;;4.30;3.70;;;15.70;99.90;;;;;;5060960;28;20319;-89
2022/06/30 04:08:06;;;;;;;4.60;3.30;;;15.80;99.90;;;;;;5064166;28;20228;-88
2022/06/30 04:10:33;;;;;;;4.30;3.10;;;15.80;99.90;;;;;;5084447;28;20726;-90
2022/06/30 04:13:01;;;;;;;4.77;3.40;;;15.90;99.90;;;;;;5068468;28;20223;-89
2022/06/30 04:15:28;;;;;;;4.53;3.17;;;15.90;99.90;;;;;;5071023;28;20218;-89
2022/06/30 04:17:55;;;;;;;3.97;3.00;;;16.00;99.90;;;;;;5062791;28;20218;-89
2022/06/30 04:20:22;;;;;;;4.10;3.40;;;16.00;99.90;;;;;;5059877;28;20231;-89
2022/06/30 04:22:50;;;;;;;3.67;3.37;;;16.10;99.90;;;;;;5067374;28;20671;-90
2022/06/30 04:25:19;;;;;;;5.33;3.50;;;16.10;99.90;;;;;;5058864;28;20791;-89
2022/06/30 04:27:47;;;;;;;3.90;3.40;;;16.20;99.90;;;;;;5084403;28;20329;-89
2022/06/30 04:30:14;;;;;;;7.40;3.67;;;16.20;99.90;;;;;;5078728;28;20224;-87
2022/06/30 04:32:41;;;;;;;7.60;3.70;;;16.30;99.90;;;;;;5064290;28;20219;-89
2022/06/30 04:35:10;;;;;;;4.20;3.60;;;16.40;99.90;;;;;;5083873;28;20282;-90
2022/06/30 04:37:37;;;;;;;4.90;3.30;;;16.40;99.90;;;;;;5065579;28;20214;-90
2022/06/30 04:42:50;;;;;;;6.13;3.33;;;16.40;99.90;;;;;;5081593;28;20314;-89
2022/06/30 04:45:17;;;;;;;6.77;3.70;;;16.50;99.90;;;;;;5073268;28;20255;-89
2022/06/30 04:47:45;;;;;;;4.80;3.43;;;16.50;99.90;;;;;;5066878;28;20215;-89
2022/06/30 04:50:12;;;;;;;4.87;3.47;;;16.60;99.90;;;;;;5067817;28;20224;-90
2022/06/30 04:52:38;;;;;;;4.40;3.27;;;16.60;99.90;;;;;;5069240;28;20287;-89
2022/06/30 04:55:06;;;;;;;4.27;3.33;;;16.60;99.90;;;;;;5065135;28;20233;-89
2022/06/30 04:57:36;;;;;;;6.43;3.40;;;16.70;99.90;;;;;;5080841;28;20238;-89
2022/06/30 05:00:06;;;;;;;3.80;3.27;;;16.70;99.90;;;;;;5068504;28;20297;-87
2022/06/30 05:02:32;;;;;;;7.68;3.60;;;16.70;99.90;;;;;;5079141;28;20234;-88
2022/06/30 05:04:59;;;;;;;5.10;3.40;;;16.80;99.90;;;;;;5084631;28;20788;-89
2022/06/30 05:07:28;;;;;;;4.73;3.37;;;16.80;99.90;;;;;;5086559;28;20499;-88
2022/06/30 05:09:55;;;;;;;4.70;3.20;;;16.90;99.90;;;;;;5061680;28;20218;-90
2022/06/30 05:12:21;;;;;;;4.35;3.58;;;17.00;99.90;;;;;;5064378;28;20223;-89
2022/06/30 05:14:50;;;;;;;5.88;3.03;;;17.00;99.90;;;;;;5079419;28;20314;-89
2022/06/30 05:17:21;;;;;;;7.32;3.70;;;17.10;99.90;;;;;;5062347;28;20728;-88
2022/06/30 05:19:48;;;;;;;4.00;3.60;;;17.20;99.90;;;;;;5044262;28;20242;-91
2022/06/30 05:22:15;;;;;;;4.43;3.60;;;17.20;99.90;;;;;;5074301;28;20605;-90
2022/06/30 05:27:27;;;;;;;3.45;2.95;;;17.30;99.90;;;;;;5068232;28;20257;-88
2022/06/30 05:29:54;;;;;;;5.25;3.33;;;17.40;99.90;;;;;;5060358;28;20219;-88
2022/06/30 05:32:22;;;;;;;5.68;3.40;;;17.40;99.90;;;;;;5081853;28;20253;-88
2022/06/30 05:34:55;;;;;;;4.60;3.15;;;17.50;99.90;;;;;;5064577;28;20223;-91
2022/06/30 05:37:22;;;;;;;6.88;3.15;;;17.50;99.90;;;;;;5081109;28;20279;-90
2022/06/30 05:39:51;;;;;;;5.72;3.15;;;17.60;99.90;;;;;;5078993;28;20215;-90
2022/06/30 05:42:17;;;;;;;5.13;3.40;;;17.70;99.90;;;;;;5076121;28;20230;-89
2022/06/30 05:44:45;;;;;;;5.03;3.60;;;17.80;99.90;;;;;;5059344;28;20219;-90
2022/06/30 05:47:13;;;;;;;4.25;3.58;;;17.80;99.90;;;;;;5082738;28;20227;-89
2022/06/30 05:49:41;;;;;;;5.43;3.10;;;17.90;99.90;;;;;;5085565;28;20226;-90
2022/06/30 05:52:10;;;;;;;4.35;3.05;;;18.00;99.90;;;;;;5065859;28;20762;-91
2022/06/30 05:54:36;;;;;;;3.90;2.97;;;18.10;99.90;;;;;;5082057;28;20227;-90
2022/06/30 05:57:06;;;;;;;6.13;3.45;;;18.20;99.90;;;;;;5067677;28;20239;-91
2022/06/30 05:59:34;;;;;;;5.00;3.60;;;18.40;99.90;;;;;;5064892;28;20227;-92
2022/06/30 06:02:01;;;;;;;5.03;3.25;;;18.50;99.90;;;;;;5062626;28;20277;-90
2022/06/30 06:04:28;;;;;;;6.75;3.05;;;18.60;99.90;;;;;;5063593;28;20222;-89
2022/06/30 06:06:56;;;;;;;4.90;3.10;;;18.70;99.90;;;;;;5056346;28;20287;-87
2022/06/30 06:09:22;;;;;;;7.13;3.65;;;18.80;99.90;;;;;;5074441;28;20890;-87
2022/06/30 06:11:49;;;;;;;4.95;3.05;;;19.00;99.90;;;;;;5055055;28;20219;-86
2022/06/30 06:14:16;;;;;;;3.85;3.10;;;19.20;99.90;;;;;;5054544;28;20231;-87
2022/06/30 06:16:43;;;;;;;4.43;3.05;;;19.20;99.90;;;;;;5078256;28;20251;-87
2022/06/30 06:19:10;;;;;;;4.70;3.00;;;19.40;99.60;;;;;;5063930;28;20222;-86
2022/06/30 06:21:37;;;;;;;6.38;3.42;;;19.50;99.40;;;;;;5060127;28;20322;-87
2022/06/30 06:24:05;;;;;;;4.93;3.13;;;19.50;99.30;;;;;;5074506;28;20234;-88
2022/06/30 06:26:32;;;;;;;5.13;3.38;;;19.60;99.30;;;;;;5076735;28;20230;-88
2022/06/30 06:29:08;;;;;;;5.38;3.25;;;19.60;99.20;;;;;;5079885;28;20227;-88
2022/06/30 06:31:37;;;;;;;8.15;3.47;;;19.80;99.00;;;;;;5053295;28;20226;-86
2022/06/30 06:34:05;;;;;;;6.20;3.20;;;19.90;99.00;;;;;;5061637;28;20265;-87
2022/06/30 06:36:32;;;;;;;5.18;3.00;;;20.10;98.90;;;;;;5068247;28;20292;-86
2022/06/30 06:38:59;;;;;;;4.70;2.78;;;20.20;98.70;;;;;;5076385;28;20210;-87
2022/06/30 06:41:27;;;;;;;3.40;2.72;;;20.40;98.50;;;;;;5053822;28;20225;-87
2022/06/30 06:43:55;;;;;;;4.75;3.13;;;20.50;98.10;;;;;;5066783;28;20529;-87
2022/06/30 06:46:26;;;;;;;4.15;2.80;;;20.70;97.90;;;;;;5070628;28;20715;-87
2022/06/30 06:48:54;;;;;;;4.80;2.85;;;20.80;97.60;;;;;;5070699;28;20230;-87
2022/06/30 06:51:20;;;;;;;4.45;2.80;;;20.90;97.50;;;;;;5059691;28;20245;-88
2022/06/30 06:53:47;;;;;;;4.20;2.97;;;21.00;97.40;;;;;;5073658;28;20215;-86
2022/06/30 06:56:14;;;;;;;4.03;3.03;;;21.10;97.30;;;;;;5061692;28;20226;-87
2022/06/30 06:58:42;;;;;;;4.82;3.10;;;21.20;97.20;;;;;;5058701;28;20233;-86
2022/06/30 07:01:09;;;;;;;6.40;2.83;;;21.30;97.00;;;;;;5062068;28;22397;-93
2022/06/30 07:03:35;;;;;;;5.53;2.92;;;21.50;97.10;;;;;;5065199;28;20342;-89
2022/06/30 07:06:02;;;;;;;3.75;2.95;;;21.70;97.10;;;;;;5064259;28;20333;-87
2022/06/30 07:08:29;;;;;;;5.50;2.70;;;22.20;97.10;;;;;;5063931;28;20229;-87
2022/06/30 07:10:56;;;;;;;7.30;2.92;;;22.80;97.10;;;;;;5073377;28;20232;-87
2022/06/30 07:13:23;;;;;;;4.63;3.00;;;23.50;96.50;;;;;;5051233;28;20306;-88
2022/06/30 07:15:51;;;;;;;4.35;2.50;;;24.30;95.50;;;;;;5057709;28;20239;-87
2022/06/30 07:18:19;;;;;;;7.57;2.60;;;25.10;94.30;;;;;;5071460;28;20223;-88
2022/06/30 07:20:46;;;;;;;5.40;2.30;;;25.90;93.50;;;;;;5074735;28;20254;-88
2022/06/30 07:23:13;;;;;;;2.80;2.35;;;26.70;92.40;;;;;;5062457;28;20219;-87
2022/06/30 07:25:40;;;;;;;4.18;2.20;;;27.40;91.60;;;;;;5081775;28;20215;-92
2022/06/30 07:28:07;;;;;;;2.58;2.17;;;28.00;90.30;;;;;;5080432;28;20221;-94
2022/06/30 07:30:34;;;;;;;3.85;2.50;;;28.60;87.40;;;;;;5065855;28;20241;-92
2022/06/30 07:33:02;;;;;;;7.95;2.53;;;29.10;86.10;;;;;;5079737;28;20702;-90
2022/06/30 07:35:29;;;;;;;4.65;2.35;;;29.70;83.50;;;;;;5078570;28;20280;-90
2022/06/30 07:37:56;;;;;;;3.38;2.35;;;30.20;83.10;;;;;;5062686;28;20215;-90
2022/06/30 07:40:23;;;;;;;3.03;2.38;;;30.60;81.10;;;;;;5061821;28;20496;-90
2022/06/30 07:42:50;;;;;;;3.75;2.45;;;31.00;77.90;;;;;;5060498;28;20330;-88
2022/06/30 07:45:17;;;;;;;4.60;2.30;;;31.40;75.80;;;;;;5078174;28;20474;-88
2022/06/30 07:47:46;;;;;;;2.38;1.80;;;31.70;75.20;;;;;;5066299;28;20287;-88
2022/06/30 07:50:14;;;;;;;3.70;2.03;;;32.00;74.40;;;;;;5075007;28;20222;-89
2022/06/30 07:52:41;;;;;;;2.90;2.00;;;32.30;72.50;;;;;;5071320;28;20246;-91
2022/06/30 07:55:08;;;;;;;3.78;2.17;;;32.70;72.10;;;;;;5082281;28;20231;-92
2022/06/30 07:57:38;;;;;;;3.45;2.20;;;33.00;69.20;;;;;;5062062;28;20227;-91
2022/06/30 08:00:07;;;;;;;4.00;2.50;;;33.20;67.00;;;;;;5077235;28;20522;-92
2022/06/30 08:02:38;;;;;;;4.15;2.10;;;33.30;67.30;;;;;;5081435;28;20732;-91
2022/06/30 08:05:06;;;;;;;4.55;2.33;;;33.40;67.20;;;;;;5065158;28;20319;-89
2022/06/30 08:07:37;;;;;;;3.47;2.30;;;33.60;66.90;;;;;;5055160;28;20223;-92
2022/06/30 08:10:05;;;;;;;2.83;2.03;;;33.80;64.40;;;;;;5058891;28;20216;-91
2022/06/30 08:12:33;;;;;;;3.08;2.40;;;34.00;63.50;;;;;;5069118;28;20945;-91
2022/06/30 08:15:00;;;;;;;3.70;2.25;;;34.10;63.10;;;;;;5059036;28;20223;-92
2022/06/30 08:17:27;;;;;;;3.28;2.05;;;34.20;61.80;;;;;;5086227;28;20218;-93
2022/06/30 08:19:59;;;;;;;3.95;2.10;;;34.30;61.90;;;;;;5071937;28;20793;-93
2022/06/30 08:22:26;;;;;;;3.70;2.30;;;34.40;61.80;;;;;;5071141;28;20706;-95
2022/06/30 08:24:57;;;;;;;4.10;2.05;;;34.60;60.90;;;;;;5065128;28;20344;-92
2022/06/30 08:27:24;;;;;;;3.20;1.90;;;34.80;59.80;;;;;;5086140;28;20901;-93
2022/06/30 08:29:53;;;;;;;3.90;2.10;;;35.10;59.60;;;;;;5059926;28;20235;-93
2022/06/30 08:32:20;;;;;;;2.63;2.00;;;35.50;58.20;;;;;;5060618;28;20302;-93
2022/06/30 08:34:47;;;;;;;3.25;1.90;;;35.60;58.10;;;;;;5065907;28;20308;-92
2022/06/30 08:37:15;;;;;;;3.42;2.20;;;35.80;57.20;;;;;;5051252;28;20582;-93
2022/06/30 08:42:28;;;;;;;4.75;2.17;;;35.90;54.50;;;;;;5067428;28;20227;-94
2022/06/30 08:45:14;;;;;;;3.58;2.17;;;35.90;53.80;;;;;;5065651;28;20309;-91
2022/06/30 08:47:41;;;;;;;3.47;2.03;;;35.80;54.30;;;;;;5078440;28;20215;-93
2022/06/30 08:50:13;;;;;;;2.80;2.17;;;35.70;53.90;;;;;;5070558;28;20737;-92
2022/06/30 08:52:45;;;;;;;2.22;1.90;;;35.60;53.50;;;;;;5087993;28;20870;-91
2022/06/30 08:55:13;;;;;;;2.45;1.88;;;35.60;54.20;;;;;;5062716;28;20230;-89
2022/06/30 08:57:42;;;;;;;2.47;2.28;;;35.80;53.80;;;;;;5063939;28;20229;-89
2022/06/30 09:00:10;;;;;;;4.75;2.25;;;35.90;52.40;;;;;;5057025;28;20250;-88
2022/06/30 09:02:37;;;;;;;2.60;1.90;;;36.00;52.30;;;;;;5057596;28;20231;-89
2022/06/30 09:05:04;;;;;;;3.65;2.03;;;36.10;52.60;;;;;;5080364;28;20667;-89
2022/06/30 09:07:31;;;;;;;4.38;2.00;;;36.10;52.30;;;;;;5068916;28;20214;-93
2022/06/30 09:09:58;;;;;;;2.42;1.75;;;36.20;52.30;;;;;;5059200;28;20251;-92
2022/06/30 09:12:26;;;;;;;3.75;1.92;;;36.30;51.10;;;;;;5068783;28;20227;-90
2022/06/30 09:14:56;;;;;;;2.78;2.10;;;36.50;50.80;;;;;;5055248;28;20418;-92
2022/06/30 09:17:25;;;;;;;3.63;1.92;;;36.60;50.10;;;;;;5057360;28;20716;-90
2022/06/30 09:19:54;;;;;;;2.92;1.83;;;36.70;50.10;;;;;;5056503;28;20691;-89
2022/06/30 09:22:23;;;;;;;3.60;1.90;;;36.90;49.60;;;;;;5073264;28;20374;-90
2022/06/30 09:24:56;;;;;;;2.55;2.25;;;37.00;49.20;;;;;;5063194;28;20292;-89
2022/06/30 09:27:43;;;;;;;3.75;1.90;;;37.10;48.90;;;;;;5055363;28;20230;-95
2022/06/30 09:30:16;;;;;;;2.97;1.85;;;37.10;49.10;;;;;;5075774;28;20230;-94
2022/06/30 09:33:13;;;;;;;6.53;2.45;;;37.20;48.80;;;;;;5077465;28;20237;-94
2022/06/30 09:35:40;;;;;;;3.03;2.20;;;37.20;48.40;;;;;;5063514;28;20245;-93
2022/06/30 09:38:09;;;;;;;2.33;1.70;;;37.30;48.70;;;;;;5075348;28;20244;-91
2022/06/30 09:41:00;;;;;;;4.03;2.25;;;37.40;48.50;;;;;;5062277;28;20360;-89
2022/06/30 09:43:32;;;;;;;3.83;2.22;;;37.40;48.20;;;;;;5060160;28;20207;-93
2022/06/30 09:46:04;;;;;;;2.55;2.00;;;37.50;47.70;;;;;;5082113;28;20216;-94
2022/06/30 09:48:33;;;;;;;3.25;2.15;;;37.40;47.50;;;;;;5104004;22;20227;-78
2022/06/30 09:51:01;;;;;;;3.30;2.20;;;37.40;48.00;;;;;;5084782;28;20229;-78
2022/06/30 09:53:29;;;;;;;3.30;2.40;;;37.30;47.70;;;;;;5062508;28;20239;-78
2022/06/30 09:55:56;;;;;;;2.10;1.83;;;37.20;47.50;;;;;;5068234;28;20742;-78
2022/06/30 09:58:36;;;;;;;3.22;2.45;;;37.10;47.40;;;;;;5068274;28;20320;-78
2022/06/30 10:01:04;;;;;;;2.58;2.20;;;37.00;47.70;;;;;;5059496;28;20721;-78
2022/06/30 10:03:31;;;;;;;4.70;2.10;;;36.90;47.90;;;;;;5088086;28;20244;-78
2022/06/30 10:06:08;;;;;;;3.30;1.98;;;36.80;47.90;;;;;;5085940;28;20786;-78
2022/06/30 10:08:36;;;;;;;3.25;2.40;;;36.70;47.60;;;;;;5088190;28;20313;-78
2022/06/30 10:11:03;;;;;;;3.00;2.10;;;36.70;47.60;;;;;;5088018;28;20634;-78
2022/06/30 10:13:34;;;;;;;5.07;2.35;;;36.60;48.00;;;;;;5087857;28;20229;-78
2022/06/30 10:16:05;;;;;;;5.20;2.47;;;36.60;47.70;;;;;;5088001;28;20710;-78
2022/06/30 10:18:39;;;;;;;2.75;2.13;;;36.70;47.80;;;;;;5071371;28;20255;-78
2022/06/30 10:21:08;;;;;;;2.33;2.10;;;36.80;47.60;;;;;;5068955;28;20215;-78
2022/06/30 10:23:35;;;;;;;3.35;1.98;;;37.00;47.40;;;;;;5071671;28;20222;-78
2022/06/30 10:26:02;;;;;;;6.65;2.20;;;37.10;47.90;;;;;;5084052;28;20310;-78
2022/06/30 10:28:29;;;;;;;4.93;2.75;;;37.30;48.00;;;;;;5088025;28;20238;-78
2022/06/30 10:31:01;;;;;;;2.15;1.95;;;37.50;47.50;;;;;;5087454;28;20222;-79
2022/06/30 10:33:38;;;;;;;4.05;2.45;;;37.80;46.90;;;;;;5087121;28;20321;-78
2022/06/30 10:36:11;;;;;;;3.80;2.50;;;38.00;45.90;;;;;;5086235;28;20222;-78
2022/06/30 10:38:45;;;;;;;5.53;2.75;;;38.00;45.80;;;;;;5088090;28;20218;-78
2022/06/30 10:41:14;;;;;;;6.45;2.42;;;38.00;45.80;;;;;;5087195;28;20223;-78
2022/06/30 10:44:14;;;;;;;3.38;2.40;;;38.00;45.90;;;;;;5086677;28;20610;-78
2022/06/30 10:47:09;;;;;;;3.15;2.65;;;38.00;46.30;;;;;;5076892;28;20227;-78
2022/06/30 10:49:53;;;;;;;4.47;2.40;;;38.00;45.70;;;;;;5076796;28;20230;-80
2022/06/30 10:52:23;;;;;;;2.42;2.10;;;37.90;45.90;;;;;;5074957;28;20224;-80
2022/06/30 10:54:49;;;;;;;2.40;2.20;;;37.80;46.10;;;;;;5065416;28;20247;-80
2022/06/30 10:57:17;;;;;;;2.90;2.28;;;37.90;46.30;;;;;;5078692;28;20317;-80
2022/06/30 10:59:44;;;;;;;3.35;2.40;;;38.00;45.60;;;;;;5083585;28;20791;-80
2022/06/30 11:02:25;;;;;;;4.63;2.55;;;38.20;45.60;;;;;;5079972;28;20313;-79
2022/06/30 11:05:23;;;;;;;2.85;2.60;;;38.20;45.10;;;;;;5076664;28;20482;-79
2022/06/30 11:07:50;;;;;;;2.50;2.30;;;38.30;44.90;;;;;;5077567;28;20617;-80
2022/06/30 11:10:18;;;;;;;4.70;2.50;;;38.20;45.50;;;;;;5080310;28;20333;-79
2022/06/30 11:12:58;;;;;;;3.05;2.30;;;38.00;45.30;;;;;;5081410;28;20233;-79
2022/06/30 11:15:51;;;;;;;3.00;2.42;;;37.90;45.20;;;;;;5062274;28;20229;-80
2022/06/30 11:18:20;;;;;;;4.03;2.47;;;37.80;45.90;;;;;;5084202;28;20322;-79
2022/06/30 11:20:49;;;;;;;4.30;2.38;;;37.80;45.60;;;;;;5076789;28;20210;-79
2022/06/30 11:23:18;;;;;;;3.55;2.20;;;37.60;45.40;;;;;;5078057;28;21911;-79
2022/06/30 11:28:32;;;;;;;3.30;2.70;;;37.50;45.70;;;;;;5064811;28;20214;-81
2022/06/30 11:30:58;;;;;;;4.80;2.80;;;37.30;45.00;;;;;;5063708;28;20305;-82
2022/06/30 11:33:25;;;;;;;2.78;2.40;;;37.10;45.40;;;;;;5064658;28;20237;-81
2022/06/30 11:36:05;;;;;;;3.20;2.50;;;36.80;45.70;;;;;;5079469;22;20233;-86
2022/06/30 11:38:32;;;;;;;3.22;2.90;;;36.40;46.50;;;;;;5012098;28;20228;-87
2022/06/30 11:41:54;;;;;;;2.53;2.28;;;36.30;46.80;;;;;;5033677;28;20224;-87
2022/06/30 11:43:53;;;;;;;2.97;2.72;;;36.20;46.70;;;;;;5022922;28;20642;-87
2022/06/30 11:46:20;;;;;;;3.47;2.58;;;36.20;46.70;;;;;;5019137;28;20399;-87
2022/06/30 11:48:47;;;;;;;5.47;2.50;;;36.30;46.70;;;;;;5007923;28;20591;-87
2022/06/30 11:51:16;;;;;;;3.40;2.33;;;36.40;46.80;;;;;;5005359;28;20221;-87
2022/06/30 11:53:43;;;;;;;4.68;2.65;;;36.30;46.80;;;;;;5004538;28;20752;-87
2022/06/30 11:56:10;;;;;;;3.20;2.38;;;36.30;46.50;;;;;;5004530;28;20225;-87
2022/06/30 11:58:38;;;;;;;4.90;2.67;;;36.20;46.40;;;;;;5004802;28;20226;-87
2022/06/30 12:01:15;;;;;;;3.97;2.47;;;36.00;46.00;;;;;;5001514;28;20685;-87
2022/06/30 12:03:43;;;;;;;3.83;2.70;;;35.80;46.90;;;;;;5004867;28;20252;-87
2022/06/30 12:06:11;;;;;;;3.17;2.58;;;35.60;46.40;;;;;;5007382;28;20252;-87
2022/06/30 12:08:40;;;;;;;3.78;2.45;;;35.60;47.40;;;;;;5005921;28;20690;-87
2022/06/30 12:11:07;;;;;;;2.97;2.70;;;35.60;46.90;;;;;;5002875;28;20873;-87
2022/06/30 12:13:34;;;;;;;2.63;2.28;;;35.70;47.30;;;;;;5006152;28;20221;-87
2022/06/30 12:16:05;;;;;;;4.78;2.60;;;35.80;47.80;;;;;;5006400;28;20802;-88
2022/06/30 12:18:32;;;;;;;2.75;2.47;;;36.00;47.50;;;;;;5005744;28;20229;-87
2022/06/30 12:20:58;;;;;;;4.07;2.38;;;36.20;47.50;;;;;;4997716;28;20238;-87
2022/06/30 12:23:25;;;;;;;3.38;2.40;;;36.40;46.90;;;;;;5002126;28;20226;-87
2022/06/30 12:25:54;;;;;;;3.55;2.80;;;36.40;46.30;;;;;;5013869;28;21021;-87
2022/06/30 12:28:22;;;;;;;2.60;2.40;;;36.40;46.40;;;;;;5004587;28;20240;-87
2022/06/30 12:30:50;;;;;;;3.17;2.50;;;36.20;46.90;;;;;;5005980;28;20226;-87
2022/06/30 12:33:16;;;;;;;3.83;2.63;;;35.90;46.60;;;;;;5006384;28;20249;-87
2022/06/30 12:35:43;;;;;;;4.03;2.70;;;35.80;47.20;;;;;;5014846;28;20694;-87
2022/06/30 12:38:13;;;;;;;6.35;2.58;;;35.70;47.30;;;;;;5004722;28;20705;-86
2022/06/30 12:40:41;;;;;;;4.13;2.50;;;35.60;47.60;;;;;;5008398;28;20289;-87
2022/06/30 12:43:09;;;;;;;2.72;2.47;;;35.60;47.80;;;;;;5009132;28;20844;-87
2022/06/30 12:45:42;;;;;;;3.42;2.42;;;35.60;47.70;;;;;;5008505;28;20247;-87
2022/06/30 12:48:10;;;;;;;4.97;2.80;;;35.60;47.90;;;;;;5010543;28;20221;-87
2022/06/30 12:50:39;;;;;;;8.93;2.45;;;35.50;48.20;;;;;;5003014;28;20225;-87
2022/06/30 12:53:19;;;;;;;2.55;2.30;;;35.50;48.30;;;;;;5004708;28;20817;-87
2022/06/30 12:56:07;;;;;;;4.47;2.33;;;35.50;48.60;;;;;;5006656;28;20225;-87
2022/06/30 12:58:50;;;;;;;3.03;2.33;;;35.60;48.20;;;;;;5004331;28;20228;-87
2022/06/30 13:01:18;;;;;;;2.83;2.50;;;35.60;47.60;;;;;;5007383;28;20312;-87
2022/06/30 13:03:51;;;;;;;2.72;2.35;;;35.70;47.30;;;;;;5012502;28;20221;-87
2022/06/30 13:06:18;;;;;;;3.05;2.60;;;35.60;47.10;;;;;;5005473;28;20232;-87
2022/06/30 13:08:46;;;;;;;4.68;2.53;;;35.40;47.80;;;;;;5011586;28;20226;-87
2022/06/30 13:11:15;;;;;;;3.10;2.75;;;35.20;47.90;;;;;;5005619;28;20230;-87
2022/06/30 13:13:47;;;;;;;2.88;2.60;;;35.20;48.30;;;;;;5008974;28;20720;-87
2022/06/30 13:16:16;;;;;;;2.80;2.53;;;35.20;48.50;;;;;;5010692;28;20235;-87